Time;durP1;ratioP1;P1;durP2;ratioP2;P2;SDS_P1;SDS_P2;PMS_P1;PMS_P2;Temp;Humidity;BMP_temperature;BMP_pressure;BME280_temperature;BME280_humidity;BME280_pressure;Samples;Min_cycle;Max_cycle;Signal;HPM_P1;HPM_P2
2022/06/06 03:00:22;;;;;;;0.80;0.73;;;24.90;50.70;;;;;;6086525;23;46489;31
2022/06/06 03:02:48;;;;;;;2.25;0.88;;;24.90;50.80;;;;;;4869342;29;45297;-59
2022/06/06 03:05:14;;;;;;;2.22;0.95;;;24.80;50.80;;;;;;4893777;28;45445;-59
2022/06/06 03:07:48;;;;;;;1.17;1.00;;;24.90;50.80;;;;;;4878673;28;45054;-60
2022/06/06 03:10:40;;;;;;;1.27;1.17;;;24.90;50.70;;;;;;4880263;29;46115;-59
2022/06/06 03:13:27;;;;;;;1.02;0.82;;;24.90;50.60;;;;;;4880458;29;46011;-59
2022/06/06 03:22:34;;;;;;;0.90;0.77;;;24.80;50.60;;;;;;4883633;29;44843;-59
2022/06/06 03:25:16;;;;;;;1.95;0.80;;;24.80;50.60;;;;;;4867255;29;46255;-58
2022/06/06 03:27:56;;;;;;;1.65;0.80;;;24.80;50.60;;;;;;4880070;29;45220;-59
2022/06/06 03:30:36;;;;;;;0.77;0.77;;;24.80;50.60;;;;;;4879135;29;45316;-58
2022/06/06 03:33:15;;;;;;;2.25;0.88;;;24.80;50.60;;;;;;4866073;28;45098;-58
2022/06/06 03:35:55;;;;;;;0.80;0.80;;;24.80;50.70;;;;;;4880131;29;45931;-58
2022/06/06 03:38:24;;;;;;;0.80;0.80;;;24.80;50.60;;;;;;4879610;29;45007;-59
2022/06/06 03:41:11;;;;;;;2.13;0.98;;;24.80;50.60;;;;;;4880945;29;45207;-58
2022/06/06 03:44:04;;;;;;;2.50;1.13;;;24.80;50.40;;;;;;4886003;28;45328;-58
2022/06/06 03:46:52;;;;;;;1.70;0.90;;;24.80;50.60;;;;;;4874491;29;46187;-59
2022/06/06 03:49:22;;;;;;;1.00;0.80;;;24.80;50.50;;;;;;4895839;28;45352;-59
2022/06/06 03:52:00;;;;;;;1.33;1.23;;;24.80;50.60;;;;;;4894941;28;45679;-57
2022/06/06 03:54:47;;;;;;;0.80;0.80;;;24.80;50.60;;;;;;4894358;28;45466;-57
2022/06/06 03:57:17;;;;;;;2.17;0.82;;;24.80;50.60;;;;;;4897980;28;46038;-58
2022/06/06 03:59:45;;;;;;;1.00;0.82;;;24.80;50.60;;;;;;4863995;28;44751;-59
2022/06/06 04:02:15;;;;;;;0.82;0.82;;;24.80;50.60;;;;;;4891882;28;45030;-59
2022/06/06 04:04:41;;;;;;;0.90;0.90;;;24.80;50.60;;;;;;4882923;28;45479;-60
2022/06/06 04:07:07;;;;;;;1.50;0.98;;;24.80;50.60;;;;;;4896125;29;45205;-61
2022/06/06 04:09:33;;;;;;;1.00;0.90;;;24.80;50.60;;;;;;4893911;29;44580;-60
2022/06/06 04:12:19;;;;;;;0.80;0.80;;;24.80;50.60;;;;;;4896505;28;45409;-60
2022/06/06 04:14:49;;;;;;;1.27;1.00;;;24.80;50.50;;;;;;4885882;28;45555;-60
2022/06/06 04:17:31;;;;;;;0.98;0.93;;;24.80;50.50;;;;;;4886486;28;46793;-60
2022/06/06 04:20:00;;;;;;;1.50;0.80;;;24.80;50.40;;;;;;4890906;28;44897;-60
2022/06/06 04:22:55;;;;;;;1.25;0.75;;;24.80;50.50;;;;;;4875712;29;45269;-59
2022/06/06 04:25:51;;;;;;;1.13;0.90;;;24.80;50.60;;;;;;4847676;29;44861;-59
2022/06/06 04:28:33;;;;;;;0.65;0.60;;;24.80;50.40;;;;;;4888707;28;45441;-60
2022/06/06 04:31:05;;;;;;;0.77;0.77;;;24.80;50.40;;;;;;4856251;28;45273;-59
2022/06/06 04:33:51;;;;;;;0.70;0.70;;;24.80;50.50;;;;;;4889782;28;45480;-60
2022/06/06 04:36:29;;;;;;;3.00;1.00;;;24.80;51.00;;;;;;4860734;29;45561;-60
2022/06/06 04:39:12;;;;;;;1.10;0.90;;;24.70;50.40;;;;;;4862521;28;45987;-59
2022/06/06 04:42:15;;;;;;;0.82;0.82;;;24.70;50.30;;;;;;4886463;28;45526;-60
2022/06/06 04:44:58;;;;;;;1.13;0.80;;;24.70;50.30;;;;;;4872148;29;45577;-60
2022/06/06 04:47:23;;;;;;;0.98;0.90;;;24.70;50.50;;;;;;4888288;28;45707;-60
2022/06/06 04:49:49;;;;;;;0.95;0.77;;;24.70;50.50;;;;;;4890981;28;45980;-60
2022/06/06 04:52:15;;;;;;;0.80;0.80;;;24.70;50.50;;;;;;4891066;28;45305;-61
2022/06/06 04:54:41;;;;;;;1.10;1.00;;;24.70;50.50;;;;;;4873507;29;45660;-60
2022/06/06 04:57:07;;;;;;;2.80;0.90;;;24.80;50.60;;;;;;4873047;29;45593;-59
2022/06/06 04:59:33;;;;;;;1.52;1.02;;;24.70;50.50;;;;;;4876992;29;45866;-61
2022/06/06 05:01:59;;;;;;;0.90;0.90;;;24.80;50.60;;;;;;4875362;28;45357;-61
2022/06/06 05:04:24;;;;;;;0.60;0.60;;;24.80;50.50;;;;;;4892824;28;44700;-61
2022/06/06 05:07:12;;;;;;;0.90;0.90;;;24.80;50.60;;;;;;4893152;29;45502;-60
2022/06/06 05:09:56;;;;;;;0.90;0.90;;;24.80;50.60;;;;;;4894860;28;46846;-60
2022/06/06 05:12:38;;;;;;;1.20;0.90;;;24.80;50.50;;;;;;4884904;28;45314;-60
2022/06/06 05:15:23;;;;;;;1.00;0.90;;;24.80;50.60;;;;;;4892926;29;46324;-58
2022/06/06 05:18:12;;;;;;;1.00;1.00;;;24.80;50.50;;;;;;4898197;28;45097;-59
2022/06/06 05:20:58;;;;;;;0.95;0.65;;;24.80;50.50;;;;;;4896193;28;46032;-61
2022/06/06 05:23:33;;;;;;;1.40;0.85;;;24.80;50.50;;;;;;4878033;29;45444;-59
2022/06/06 05:26:46;;;;;;;1.00;0.90;;;24.80;50.50;;;;;;4895792;28;44934;-61
2022/06/06 05:29:40;;;;;;;1.38;0.70;;;24.80;50.30;;;;;;4866959;29;45289;-59
2022/06/06 05:32:34;;;;;;;1.20;0.90;;;24.80;50.40;;;;;;4881514;28;45984;-60
2022/06/06 05:35:08;;;;;;;1.27;1.17;;;24.90;50.30;;;;;;4893572;28;44843;-59
2022/06/06 05:37:44;;;;;;;1.67;0.98;;;24.90;50.30;;;;;;4894521;29;45369;-60
2022/06/06 05:40:38;;;;;;;0.90;0.90;;;24.90;50.30;;;;;;4865247;29;45557;-59
2022/06/06 05:43:13;;;;;;;1.50;0.88;;;24.90;50.30;;;;;;4892285;28;46346;-59
2022/06/06 05:46:02;;;;;;;1.55;0.95;;;24.90;50.30;;;;;;4879086;29;44735;-60
2022/06/06 05:48:49;;;;;;;2.85;1.00;;;24.90;50.10;;;;;;4879774;29;45810;-60
2022/06/06 05:51:29;;;;;;;2.03;0.95;;;25.00;50.10;;;;;;4894311;28;45441;-59
2022/06/06 05:54:00;;;;;;;1.08;1.00;;;25.00;50.20;;;;;;4878898;28;47025;-59
2022/06/06 05:56:37;;;;;;;2.05;1.10;;;25.00;50.10;;;;;;4877569;29;44745;-57
2022/06/06 05:59:15;;;;;;;1.00;0.90;;;25.00;50.00;;;;;;4864120;28;44660;-59
2022/06/06 06:01:59;;;;;;;1.08;0.98;;;25.00;50.10;;;;;;4893297;28;45895;-60
2022/06/06 06:04:40;;;;;;;1.10;1.00;;;25.00;50.10;;;;;;4876287;29;47046;-59
2022/06/06 06:07:24;;;;;;;1.33;1.10;;;25.00;50.00;;;;;;4895384;28;45421;-61
2022/06/06 06:10:20;;;;;;;1.05;0.95;;;25.00;50.10;;;;;;4881062;29;45816;-59
2022/06/06 06:13:19;;;;;;;1.30;1.20;;;25.10;50.00;;;;;;4858891;28;45309;-61
2022/06/06 06:15:44;;;;;;;1.77;0.88;;;25.10;50.00;;;;;;4876501;28;46192;-59
2022/06/06 06:18:22;;;;;;;1.00;0.90;;;25.10;50.10;;;;;;4890313;28;45279;-59
2022/06/06 06:20:52;;;;;;;1.35;1.05;;;25.10;50.00;;;;;;4895769;28;45198;-58
2022/06/06 06:23:21;;;;;;;1.05;1.05;;;25.10;50.70;;;;;;4878994;29;46395;-60
2022/06/06 06:25:47;;;;;;;2.63;0.85;;;25.10;50.00;;;;;;4893435;28;45938;-60
2022/06/06 06:28:13;;;;;;;1.20;1.10;;;25.10;50.10;;;;;;4879306;29;44748;-60
2022/06/06 06:31:24;;;;;;;1.27;0.90;;;25.10;50.10;;;;;;4892497;28;45630;-61
2022/06/06 06:34:10;;;;;;;1.35;1.00;;;25.10;50.00;;;;;;4894056;28;45712;-59
2022/06/06 06:36:46;;;;;;;1.45;1.13;;;25.10;50.00;;;;;;4888025;29;46207;-60
2022/06/06 06:39:29;;;;;;;1.13;1.05;;;25.10;50.00;;;;;;4874734;29;45315;-57
2022/06/06 06:42:06;;;;;;;1.38;1.02;;;25.10;50.00;;;;;;4895226;28;45479;-59
2022/06/06 06:44:39;;;;;;;1.30;1.20;;;25.10;50.00;;;;;;4894514;28;44741;-60
2022/06/06 06:47:18;;;;;;;1.00;0.90;;;25.10;50.00;;;;;;4892176;28;45528;-61
2022/06/06 06:49:50;;;;;;;1.15;1.05;;;25.10;50.00;;;;;;4877720;28;45518;-59
2022/06/06 06:52:19;;;;;;;1.13;1.05;;;25.10;50.00;;;;;;4878804;29;45312;-60
2022/06/06 06:55:15;;;;;;;0.90;0.90;;;25.10;50.00;;;;;;4876604;28;45534;-59
2022/06/06 06:57:54;;;;;;;1.50;1.10;;;25.10;49.90;;;;;;4878330;28;47428;-60
2022/06/06 07:00:21;;;;;;;1.48;0.95;;;25.10;49.90;;;;;;4881837;29;45532;-61
2022/06/06 07:08:58;;;;;;;0.80;0.80;;;25.00;50.00;;;;;;4893208;28;46083;-59
2022/06/06 07:11:45;;;;;;;2.05;1.27;;;25.10;50.00;;;;;;4895519;28;45358;-60
2022/06/06 07:14:35;;;;;;;0.90;0.90;;;25.10;50.00;;;;;;4879349;29;44711;-59
2022/06/06 07:17:00;;;;;;;0.93;0.70;;;25.00;50.00;;;;;;4892587;28;46345;-59
2022/06/06 07:19:48;;;;;;;1.77;1.10;;;25.00;50.10;;;;;;4893371;28;45962;-59
2022/06/06 07:22:15;;;;;;;1.48;1.38;;;25.00;50.10;;;;;;4848811;29;45813;-59
2022/06/06 07:24:41;;;;;;;1.83;1.10;;;25.00;50.20;;;;;;4876018;28;46198;-59
2022/06/06 07:27:07;;;;;;;1.00;0.90;;;25.10;50.20;;;;;;4877448;29;45248;-59
2022/06/06 07:29:33;;;;;;;1.50;0.98;;;25.10;50.10;;;;;;4860951;28;46284;-58
2022/06/06 07:32:33;;;;;;;0.82;0.82;;;25.10;50.20;;;;;;4893561;29;45549;-60
2022/06/06 07:35:20;;;;;;;1.20;1.10;;;25.10;50.10;;;;;;4878564;28;46608;-60
2022/06/06 07:38:16;;;;;;;1.50;1.10;;;25.10;50.10;;;;;;4892932;28;45570;-59
2022/06/06 07:41:03;;;;;;;1.58;0.90;;;25.10;50.10;;;;;;4877641;28;46208;-60
2022/06/06 07:43:50;;;;;;;1.20;1.10;;;25.10;50.10;;;;;;4891990;28;45068;-59
2022/06/06 07:46:38;;;;;;;1.20;1.10;;;25.10;50.10;;;;;;4893952;28;45591;-59
2022/06/06 07:49:08;;;;;;;3.10;1.20;;;25.10;50.10;;;;;;4863211;29;44825;-59
2022/06/06 07:51:50;;;;;;;1.05;1.00;;;25.20;50.20;;;;;;4862890;29;46923;-59
2022/06/06 07:54:25;;;;;;;1.00;0.90;;;25.20;50.10;;;;;;4890922;28;45352;-59
2022/06/06 07:57:02;;;;;;;1.42;0.93;;;25.20;50.00;;;;;;4891367;28;45701;-60
2022/06/06 07:59:36;;;;;;;1.10;1.00;;;25.20;50.00;;;;;;4877186;29;44798;-59
2022/06/06 08:02:31;;;;;;;1.23;1.13;;;25.20;50.00;;;;;;4876631;28;46180;-59
2022/06/06 08:05:21;;;;;;;1.05;0.98;;;25.30;50.00;;;;;;4888885;28;45702;-59
2022/06/06 08:08:07;;;;;;;1.20;1.10;;;25.30;49.90;;;;;;4876153;28;45303;-59
2022/06/06 08:10:46;;;;;;;2.70;1.10;;;25.30;49.90;;;;;;4876225;29;45651;-60
2022/06/06 08:13:36;;;;;;;1.40;1.30;;;25.30;49.80;;;;;;4890424;28;45461;-61
2022/06/06 08:16:13;;;;;;;1.20;1.10;;;25.40;49.80;;;;;;4889918;28;45408;-60
2022/06/06 08:18:58;;;;;;;1.63;1.13;;;25.40;49.90;;;;;;4877147;29;45254;-60
2022/06/06 08:21:30;;;;;;;1.10;1.10;;;25.40;49.80;;;;;;4890982;28;45697;-60
2022/06/06 08:23:58;;;;;;;3.27;1.10;;;25.40;49.80;;;;;;4892454;28;45285;-60
2022/06/06 08:26:24;;;;;;;1.20;1.10;;;25.40;49.70;;;;;;4873376;29;45004;-61
2022/06/06 08:28:50;;;;;;;2.60;1.80;;;25.50;49.70;;;;;;4887806;28;44729;-61
2022/06/06 08:31:16;;;;;;;2.28;1.75;;;25.50;49.80;;;;;;4864130;28;44811;-61
2022/06/06 08:33:42;;;;;;;2.35;1.83;;;25.50;49.80;;;;;;4870259;28;46071;-60
2022/06/06 08:36:24;;;;;;;2.35;1.83;;;25.50;49.90;;;;;;4874651;28;45146;-60
2022/06/06 08:39:06;;;;;;;6.57;3.58;;;25.50;49.80;;;;;;4897073;28;45765;-61
2022/06/06 08:42:09;;;;;;;3.67;2.20;;;25.50;49.70;;;;;;4890588;28;45283;-60
2022/06/06 08:44:41;;;;;;;2.13;1.88;;;25.50;49.70;;;;;;4891227;28;46340;-60
2022/06/06 08:47:14;;;;;;;2.75;2.20;;;25.50;49.80;;;;;;4870417;28;45150;-62
2022/06/06 08:52:33;;;;;;;3.33;2.35;;;25.50;49.80;;;;;;4871414;28;45452;-60
2022/06/06 08:55:14;;;;;;;3.58;2.15;;;25.60;49.70;;;;;;4875652;28;46492;-60
2022/06/06 08:58:01;;;;;;;2.75;1.83;;;25.60;49.70;;;;;;4875570;28;44972;-60
2022/06/06 09:00:48;;;;;;;2.45;1.90;;;25.60;49.60;;;;;;4874982;28;45499;-61
2022/06/06 09:03:51;;;;;;;3.08;1.98;;;25.70;49.60;;;;;;4886967;28;45375;-60
2022/06/06 09:06:39;;;;;;;3.72;1.98;;;25.70;49.60;;;;;;4867353;28;46443;-60
2022/06/06 09:09:20;;;;;;;3.38;1.77;;;25.70;49.60;;;;;;4869233;28;45529;-60
2022/06/06 09:12:04;;;;;;;2.33;1.92;;;25.70;49.40;;;;;;4892279;28;45302;-62
2022/06/06 09:14:51;;;;;;;2.45;1.80;;;25.70;49.10;;;;;;4892696;28;45301;-60
2022/06/06 09:17:37;;;;;;;2.58;1.73;;;25.70;49.10;;;;;;4878632;28;46025;-60
2022/06/06 09:20:09;;;;;;;3.35;1.80;;;25.60;49.30;;;;;;4880861;28;45447;-61
2022/06/06 09:23:09;;;;;;;2.03;1.80;;;25.70;49.20;;;;;;4901850;28;44710;-60
2022/06/06 09:25:43;;;;;;;2.80;1.85;;;25.60;49.10;;;;;;4893343;28;44668;-60
2022/06/06 09:28:47;;;;;;;2.25;1.52;;;25.60;49.30;;;;;;4885555;29;44996;-59
2022/06/06 09:31:12;;;;;;;;;;;25.60;49.00;;;;;;4886680;28;45528;-59
2022/06/06 09:34:11;;;;;;;3.63;1.38;;;25.60;48.90;;;;;;4896033;28;45048;-60
2022/06/06 09:36:43;;;;;;;3.75;1.75;;;25.60;49.00;;;;;;4898010;28;45997;-60
2022/06/06 09:39:20;;;;;;;2.33;1.70;;;25.60;49.10;;;;;;4896139;28;46077;-59
2022/06/06 09:42:19;;;;;;;2.85;1.83;;;25.70;49.10;;;;;;4897289;28;45322;-61
2022/06/06 09:44:57;;;;;;;2.47;2.10;;;25.70;49.00;;;;;;4870347;28;45195;-60
2022/06/06 09:47:53;;;;;;;5.97;1.80;;;25.70;49.00;;;;;;4896282;28;45546;-60
2022/06/06 09:50:48;;;;;;;2.33;1.90;;;25.80;48.90;;;;;;4900482;28;45206;-61
2022/06/06 09:53:40;;;;;;;2.00;1.75;;;25.80;48.90;;;;;;4875570;28;44770;-60
2022/06/06 09:59:22;;;;;;;2.03;1.80;;;25.80;48.80;;;;;;4898406;28;45476;-60
2022/06/06 10:02:04;;;;;;;1.85;1.55;;;25.90;48.90;;;;;;4886081;28;45577;-61
2022/06/06 10:05:07;;;;;;;4.53;1.60;;;25.90;48.70;;;;;;4900375;28;45257;-61
2022/06/06 10:08:02;;;;;;;2.55;1.33;;;25.90;48.40;;;;;;4895149;28;45267;-60
2022/06/06 10:10:52;;;;;;;3.55;1.75;;;25.90;48.20;;;;;;4871064;29;45192;-61
2022/06/06 10:13:37;;;;;;;2.00;1.55;;;25.90;47.80;;;;;;4892695;28;46580;-61
2022/06/06 10:16:38;;;;;;;2.28;1.55;;;25.90;47.50;;;;;;4883703;28;45182;-60
2022/06/06 10:19:32;;;;;;;2.70;1.63;;;25.90;47.10;;;;;;4867165;29;45200;-60
2022/06/06 10:22:05;;;;;;;1.52;1.42;;;25.90;47.60;;;;;;4894671;28;45558;-59
2022/06/06 10:24:59;;;;;;;2.05;1.65;;;25.90;47.30;;;;;;4879447;29;45195;-59
2022/06/06 10:27:49;;;;;;;2.00;1.35;;;25.90;46.90;;;;;;4882458;28;44762;-63
2022/06/06 10:30:23;;;;;;;2.30;1.60;;;25.90;46.90;;;;;;4895396;28;45513;-59
2022/06/06 10:33:34;;;;;;;1.30;1.20;;;25.90;47.10;;;;;;4882088;28;44800;-59
2022/06/06 10:36:11;;;;;;;1.52;1.42;;;26.00;46.30;;;;;;4861584;28;46701;-60
2022/06/06 10:39:18;;;;;;;1.73;1.30;;;26.00;47.00;;;;;;4903076;28;45484;-60
2022/06/06 10:42:09;;;;;;;1.48;1.30;;;26.00;45.90;;;;;;4896579;28;45578;-59
2022/06/06 10:44:53;;;;;;;1.58;1.17;;;26.00;46.70;;;;;;4904538;28;45255;-60
2022/06/06 10:47:57;;;;;;;1.00;1.00;;;26.00;45.80;;;;;;4900506;28;46137;-60
2022/06/06 10:50:25;;;;;;;;;;;26.00;45.80;;;;;;4851424;29;45265;-58
2022/06/06 10:52:57;;;;;;;2.40;1.13;;;26.00;45.70;;;;;;4886378;28;45221;-64
2022/06/06 10:55:38;;;;;;;2.17;0.90;;;26.10;46.50;;;;;;4899742;28;45632;-60
2022/06/06 10:58:09;;;;;;;1.65;1.27;;;26.20;46.40;;;;;;4894710;28;45639;-67
2022/06/06 11:00:56;;;;;;;1.20;1.10;;;26.20;46.10;;;;;;4901758;28;45369;-60
2022/06/06 11:03:42;;;;;;;1.45;1.25;;;26.30;46.10;;;;;;4891234;28;44853;-63
2022/06/06 11:06:46;;;;;;;1.35;1.10;;;26.30;45.70;;;;;;4893402;28;45097;-65
2022/06/06 11:09:40;;;;;;;2.10;1.20;;;26.30;45.60;;;;;;4880284;29;46029;-59
2022/06/06 11:12:06;;;;;;;1.42;1.33;;;26.40;45.80;;;;;;4889472;28;45277;-64
2022/06/06 11:14:35;;;;;;;1.58;1.10;;;26.40;46.10;;;;;;4894450;28;45467;-59
2022/06/06 11:17:12;;;;;;;1.63;1.33;;;26.50;46.10;;;;;;4895534;28;45050;-63
2022/06/06 11:20:03;;;;;;;2.17;1.33;;;26.50;45.80;;;;;;4896819;28;45327;-63
2022/06/06 11:23:00;;;;;;;1.85;1.10;;;26.50;45.40;;;;;;4862428;29;44937;-64
2022/06/06 11:25:26;;;;;;;1.40;0.95;;;26.60;45.10;;;;;;4900719;28;45293;-63
2022/06/06 11:28:17;;;;;;;1.35;0.90;;;26.60;45.70;;;;;;4883681;28;44693;-64
2022/06/06 11:31:28;;;;;;;2.83;1.30;;;26.60;45.20;;;;;;4903873;28;46073;-64
2022/06/06 11:34:13;;;;;;;2.35;1.55;;;26.60;45.20;;;;;;4887806;29;45346;-63
2022/06/06 11:36:42;;;;;;;2.58;1.10;;;26.60;45.00;;;;;;4897002;28;45480;-63
2022/06/06 11:39:27;;;;;;;2.38;1.17;;;26.60;45.00;;;;;;4890376;28;45682;-62
2022/06/06 11:42:18;;;;;;;1.33;1.08;;;26.70;44.50;;;;;;4874973;28;46215;-65
2022/06/06 11:45:09;;;;;;;2.05;1.10;;;26.70;44.80;;;;;;4877440;28;46833;-60
2022/06/06 11:47:47;;;;;;;1.90;0.88;;;26.80;43.90;;;;;;4878970;29;44956;-61
2022/06/06 11:50:28;;;;;;;1.55;0.82;;;26.80;44.40;;;;;;4883857;28;45448;-63
2022/06/06 11:53:06;;;;;;;3.75;1.05;;;26.90;44.00;;;;;;4886854;28;46401;-63
2022/06/06 11:55:43;;;;;;;2.05;0.77;;;26.90;43.10;;;;;;4877762;29;45907;-62
2022/06/06 11:58:12;;;;;;;1.10;0.98;;;26.90;43.60;;;;;;4896009;28;45422;-63
2022/06/06 12:01:14;;;;;;;2.20;0.70;;;26.90;43.50;;;;;;4890819;28;45454;-63
2022/06/06 12:03:58;;;;;;;1.90;0.80;;;26.80;42.10;;;;;;4890417;28;45137;-65
2022/06/06 12:06:26;;;;;;;1.15;0.88;;;26.80;42.60;;;;;;4896285;28;45218;-63
2022/06/06 12:09:07;;;;;;;2.75;0.70;;;26.80;42.80;;;;;;4897493;28;45599;-63
2022/06/06 12:11:59;;;;;;;1.67;0.65;;;26.80;41.80;;;;;;4894802;28;45135;-64
2022/06/06 12:14:50;;;;;;;1.43;0.70;;;26.90;41.70;;;;;;4896528;28;45273;-63
2022/06/06 12:17:21;;;;;;;0.77;0.50;;;26.90;41.00;;;;;;4892858;28;45347;-63
2022/06/06 12:20:02;;;;;;;2.75;0.70;;;26.90;42.20;;;;;;4902883;28;46328;-63
2022/06/06 12:22:49;;;;;;;1.05;0.80;;;26.90;41.40;;;;;;4899381;28;45483;-62
2022/06/06 12:25:29;;;;;;;1.00;0.45;;;26.90;41.00;;;;;;4898664;28;45080;-62
2022/06/06 12:28:29;;;;;;;1.40;0.70;;;26.90;41.00;;;;;;4888404;28;45744;-62
2022/06/06 12:31:21;;;;;;;0.70;0.57;;;27.00;41.50;;;;;;4894022;28;45986;-64
2022/06/06 12:34:02;;;;;;;0.75;0.70;;;27.00;40.30;;;;;;4873464;28;45490;-63
2022/06/06 12:36:29;;;;;;;3.58;0.70;;;27.00;40.80;;;;;;4900291;28;46071;-67
2022/06/06 12:38:57;;;;;;;0.85;0.70;;;27.00;41.60;;;;;;4888553;28;45621;-72
2022/06/06 12:41:43;;;;;;;0.73;0.63;;;27.00;41.50;;;;;;4889593;28;45501;-59
2022/06/06 12:44:36;;;;;;;2.95;0.80;;;27.10;40.90;;;;;;4867353;29;46227;-65
2022/06/06 12:47:08;;;;;;;;;;;27.10;40.50;;;;;;4890910;28;45301;-64
2022/06/06 12:50:05;;;;;;;0.70;0.50;;;27.10;39.80;;;;;;4890426;28;45743;-64
2022/06/06 12:52:37;;;;;;;0.80;0.60;;;27.20;40.30;;;;;;4878265;29;45960;-66
2022/06/06 12:57:52;;;;;;;4.95;1.15;;;27.10;40.50;;;;;;4892844;28;45931;-62
2022/06/06 13:01:37;;;;;;;1.60;0.90;;;27.10;40.80;;;;;;4891611;28;45339;-68
2022/06/06 13:03:37;;;;;;;2.72;0.85;;;27.10;40.60;;;;;;4892425;28;45700;-65
2022/06/06 13:06:15;;;;;;;2.00;0.73;;;27.10;39.80;;;;;;4892934;28;45459;-62
2022/06/06 13:09:15;;;;;;;1.25;0.60;;;27.10;40.90;;;;;;4896224;28;45570;-61
2022/06/06 13:11:55;;;;;;;0.70;0.60;;;27.00;39.40;;;;;;4876591;28;45484;-62
2022/06/06 13:14:42;;;;;;;2.38;0.65;;;27.00;40.10;;;;;;4892761;28;45636;-62
2022/06/06 13:17:23;;;;;;;1.75;0.60;;;26.90;40.30;;;;;;4892962;28;45545;-63
2022/06/06 13:20:03;;;;;;;1.30;0.63;;;26.90;39.80;;;;;;4894773;28;47178;-63
2022/06/06 13:22:55;;;;;;;3.03;0.60;;;26.90;40.30;;;;;;4887341;29;45476;-65
2022/06/06 13:26:02;;;;;;;1.30;0.70;;;26.90;39.30;;;;;;4880041;29;45462;-64
2022/06/06 13:28:31;;;;;;;0.57;0.57;;;26.80;39.10;;;;;;4884128;28;46369;-60
2022/06/06 13:31:10;;;;;;;1.00;0.70;;;26.80;40.40;;;;;;4888763;28;46122;-63
2022/06/06 13:33:56;;;;;;;0.68;0.68;;;26.70;39.60;;;;;;4880461;29;45622;-65
2022/06/06 13:36:53;;;;;;;1.95;0.90;;;26.70;40.20;;;;;;4885586;28;45546;-65
2022/06/06 13:39:41;;;;;;;0.77;0.50;;;26.70;39.10;;;;;;4893576;28;45403;-64
2022/06/06 13:42:28;;;;;;;3.80;0.60;;;26.60;39.70;;;;;;4863059;28;46555;-68
2022/06/06 13:45:03;;;;;;;0.50;0.50;;;26.60;39.70;;;;;;4899378;28;45639;-60
2022/06/06 13:47:46;;;;;;;2.05;0.77;;;26.50;40.20;;;;;;4896303;29;45588;-60
2022/06/06 13:50:24;;;;;;;3.00;0.57;;;26.40;40.20;;;;;;4892266;28;44838;-61
2022/06/06 13:53:08;;;;;;;1.30;0.52;;;26.40;40.10;;;;;;4878585;28;45964;-65
2022/06/06 13:55:37;;;;;;;1.83;0.70;;;26.30;40.10;;;;;;4893123;28;45697;-58
2022/06/06 13:58:24;;;;;;;0.70;0.57;;;26.30;41.00;;;;;;4900239;28;45281;-64
2022/06/06 14:01:14;;;;;;;2.00;0.50;;;26.40;40.40;;;;;;4900282;28;45142;-63
2022/06/06 14:03:53;;;;;;;0.63;0.52;;;26.40;40.80;;;;;;4895924;28;46905;-66
2022/06/06 14:06:36;;;;;;;1.05;0.50;;;26.30;40.80;;;;;;4877229;29;45694;-63
2022/06/06 14:09:01;;;;;;;1.77;0.80;;;26.40;40.60;;;;;;4880960;29;45452;-59
2022/06/06 14:12:09;;;;;;;0.75;0.40;;;26.40;41.10;;;;;;4893216;28;45141;-61
2022/06/06 14:14:35;;;;;;;0.73;0.60;;;26.40;40.10;;;;;;4841689;29;45178;-68
2022/06/06 14:17:02;;;;;;;1.63;0.65;;;26.40;41.00;;;;;;4877668;28;45001;-60
2022/06/06 14:19:35;;;;;;;0.55;0.55;;;26.50;41.10;;;;;;4895364;28;44802;-59
2022/06/06 14:22:04;;;;;;;3.58;0.70;;;26.50;40.90;;;;;;4876908;29;45257;-58
2022/06/06 14:24:32;;;;;;;1.15;0.70;;;26.50;40.90;;;;;;4879188;29;46005;-61
2022/06/06 14:26:58;;;;;;;2.10;0.70;;;26.50;40.80;;;;;;4864012;29;45253;-63
2022/06/06 14:29:25;;;;;;;1.13;0.68;;;26.50;40.80;;;;;;4878418;29;45254;-57
2022/06/06 14:31:56;;;;;;;2.00;0.80;;;26.40;40.70;;;;;;4894301;28;46204;-63
2022/06/06 14:34:45;;;;;;;0.65;0.57;;;26.50;40.60;;;;;;4892024;28;46177;-64
2022/06/06 14:37:16;;;;;;;2.47;0.73;;;26.40;40.70;;;;;;4893145;29;45239;-67
2022/06/06 14:39:43;;;;;;;0.95;0.73;;;26.30;41.10;;;;;;4893770;28;45487;-65
2022/06/06 14:42:10;;;;;;;1.35;0.73;;;26.40;41.20;;;;;;4888151;28;45573;-61
2022/06/06 14:44:41;;;;;;;1.65;0.60;;;26.40;41.20;;;;;;4877306;29;46181;-67
2022/06/06 14:47:14;;;;;;;0.70;0.60;;;26.30;41.20;;;;;;4867979;28;45642;-63
2022/06/06 14:49:45;;;;;;;1.00;0.80;;;26.30;41.40;;;;;;4875251;28;44928;-64
2022/06/06 14:52:19;;;;;;;1.48;0.70;;;26.30;41.10;;;;;;4876553;29;45034;-64
2022/06/06 14:54:53;;;;;;;3.10;1.02;;;26.30;40.70;;;;;;4861947;28;46119;-61
2022/06/06 14:57:19;;;;;;;1.35;0.60;;;26.30;40.80;;;;;;4892738;28;45597;-65
2022/06/06 14:59:49;;;;;;;0.85;0.57;;;26.30;41.00;;;;;;4877301;29;46337;-57
2022/06/06 15:02:19;;;;;;;0.68;0.60;;;26.30;41.10;;;;;;4876846;29;45657;-65
2022/06/06 15:04:45;;;;;;;2.33;0.90;;;26.20;41.20;;;;;;4892014;28;46036;-64
2022/06/06 15:07:11;;;;;;;1.27;0.60;;;26.10;41.40;;;;;;4876910;29;45627;-61
2022/06/06 15:09:58;;;;;;;1.27;0.80;;;26.10;41.40;;;;;;4876071;29;44825;-66
2022/06/06 15:12:25;;;;;;;3.13;0.85;;;26.10;40.90;;;;;;4885215;29;46291;-69
2022/06/06 15:15:05;;;;;;;1.15;0.50;;;26.10;41.50;;;;;;4876990;28;46370;-65
2022/06/06 15:17:34;;;;;;;0.32;0.32;;;26.00;41.40;;;;;;4869017;29;45373;-61
2022/06/06 15:20:03;;;;;;;3.28;0.70;;;26.00;41.60;;;;;;4894018;28;45329;-58
2022/06/06 15:22:37;;;;;;;1.70;0.85;;;26.00;41.90;;;;;;4862641;29;45290;-60
2022/06/06 15:25:04;;;;;;;0.70;0.63;;;26.00;41.70;;;;;;4861894;28;47158;-62
2022/06/06 15:27:41;;;;;;;0.90;0.65;;;25.90;41.90;;;;;;4892994;28;45356;-69
2022/06/06 15:30:25;;;;;;;1.52;0.70;;;25.90;41.80;;;;;;4877823;29;45488;-62
2022/06/06 15:32:56;;;;;;;1.58;0.60;;;25.90;41.80;;;;;;4895445;28;45876;-65
2022/06/06 15:35:37;;;;;;;1.75;0.98;;;25.90;42.20;;;;;;4891722;28;46107;-68
2022/06/06 15:38:14;;;;;;;1.17;0.63;;;25.90;41.90;;;;;;4895575;28;45351;-57
2022/06/06 15:40:44;;;;;;;1.27;1.00;;;25.90;42.20;;;;;;4898050;28;45602;-57
2022/06/06 15:43:33;;;;;;;0.75;0.70;;;25.90;42.20;;;;;;4879053;29;45382;-57
2022/06/06 15:46:10;;;;;;;1.23;0.75;;;25.90;42.10;;;;;;4890657;28;46207;-61
2022/06/06 15:49:08;;;;;;;1.00;0.63;;;25.80;42.10;;;;;;4889853;28;45255;-61
2022/06/06 15:51:54;;;;;;;1.73;0.80;;;25.90;42.20;;;;;;4878168;29;45202;-56
2022/06/06 15:55:08;;;;;;;0.60;0.50;;;25.80;42.20;;;;;;4894843;28;45181;-61
2022/06/06 15:58:03;;;;;;;2.67;1.10;;;25.80;42.30;;;;;;4878816;28;46928;-57
2022/06/06 16:00:29;;;;;;;4.72;0.98;;;25.80;42.30;;;;;;4854524;29;46432;-58
2022/06/06 16:03:02;;;;;;;4.18;0.77;;;25.80;42.70;;;;;;4885019;28;45149;-59
2022/06/06 16:05:30;;;;;;;1.70;1.00;;;25.80;42.60;;;;;;4903492;28;45237;-58
2022/06/06 16:08:15;;;;;;;1.20;0.75;;;25.80;42.80;;;;;;4882874;28;46414;-58
2022/06/06 16:11:12;;;;;;;0.98;0.70;;;25.90;42.70;;;;;;4869802;28;45375;-56
2022/06/06 16:13:46;;;;;;;1.15;0.85;;;25.90;42.70;;;;;;4895505;28;45495;-62
2022/06/06 16:16:39;;;;;;;1.15;0.90;;;25.80;42.90;;;;;;4879473;29;44859;-60
2022/06/06 16:19:19;;;;;;;1.30;0.77;;;25.80;42.80;;;;;;4899995;28;46218;-57
2022/06/06 16:21:49;;;;;;;2.55;0.80;;;25.80;42.90;;;;;;4897724;28;45274;-57
2022/06/06 16:24:21;;;;;;;1.60;1.00;;;25.80;43.00;;;;;;4885123;29;45509;-60
2022/06/06 16:26:55;;;;;;;1.57;0.90;;;25.80;42.90;;;;;;4893421;28;45156;-61
2022/06/06 16:29:34;;;;;;;3.08;1.27;;;25.80;42.90;;;;;;4885221;29;46762;-56
2022/06/06 16:32:11;;;;;;;2.03;1.02;;;25.80;43.00;;;;;;4871706;28;45146;-63
2022/06/06 16:34:38;;;;;;;1.33;1.20;;;25.80;43.00;;;;;;4897745;28;45416;-54
2022/06/06 16:37:13;;;;;;;1.70;1.10;;;25.80;43.20;;;;;;4898546;28;45263;-56
2022/06/06 16:39:56;;;;;;;2.83;1.23;;;25.80;43.00;;;;;;4897662;28;46029;-57
2022/06/06 16:48:23;;;;;;;1.10;1.00;;;25.70;43.30;;;;;;4887501;28;45272;-58
2022/06/06 16:50:58;;;;;;;1.20;0.93;;;25.80;43.30;;;;;;4892845;28;46152;-57
2022/06/06 16:53:43;;;;;;;3.17;1.48;;;25.80;43.30;;;;;;4884943;28;45298;-58
2022/06/06 16:56:32;;;;;;;1.10;0.90;;;25.80;43.20;;;;;;4892388;28;45433;-60
2022/06/06 16:59:09;;;;;;;1.63;0.98;;;25.80;43.30;;;;;;4872722;28;45292;-60
2022/06/06 17:01:37;;;;;;;1.00;0.88;;;25.80;43.40;;;;;;4895397;28;45118;-57
2022/06/06 17:04:08;;;;;;;0.77;0.75;;;25.80;43.40;;;;;;4879327;29;45343;-60
2022/06/06 17:09:52;;;;;;;1.35;0.70;;;25.80;43.70;;;;;;4887779;28;45183;-62
2022/06/06 17:12:38;;;;;;;1.50;0.60;;;25.70;43.80;;;;;;4893677;28;45914;-59
2022/06/06 17:15:10;;;;;;;4.03;0.88;;;25.70;44.00;;;;;;4888145;29;44850;-58
2022/06/06 17:18:02;;;;;;;2.92;0.77;;;25.70;44.20;;;;;;4884132;29;45418;-59
2022/06/06 17:20:31;;;;;;;1.92;0.90;;;25.60;44.40;;;;;;4882829;29;45223;-62
2022/06/06 17:23:05;;;;;;;0.98;0.90;;;25.60;44.50;;;;;;4897204;28;45440;-58
2022/06/06 17:25:41;;;;;;;0.75;0.65;;;25.60;44.60;;;;;;4891462;28;45346;-60